sensor_id;sensor_type;location;lat;lon;timestamp;temperature;humidity
8261;DHT22;64115;50.170;8.242;2023-12-28T00:01:37;5.20;99.90
8261;DHT22;64115;50.170;8.242;2023-12-28T00:04:04;5.20;99.90
8261;DHT22;64115;50.170;8.242;2023-12-28T00:06:32;5.20;99.90
8261;DHT22;64115;50.170;8.242;2023-12-28T00:08:59;5.30;99.90
8261;DHT22;64115;50.170;8.242;2023-12-28T00:11:26;5.30;99.90
8261;DHT22;64115;50.170;8.242;2023-12-28T00:13:53;5.30;99.90
8261;DHT22;64115;50.170;8.242;2023-12-28T00:16:20;5.30;99.90
8261;DHT22;64115;50.170;8.242;2023-12-28T00:18:47;5.30;99.90
8261;DHT22;64115;50.170;8.242;2023-12-28T00:21:13;5.40;99.90
8261;DHT22;64115;50.170;8.242;2023-12-28T00:23:42;5.40;99.90
8261;DHT22;64115;50.170;8.242;2023-12-28T00:26:08;5.50;99.90
8261;DHT22;64115;50.170;8.242;2023-12-28T00:28:35;5.50;99.90
8261;DHT22;64115;50.170;8.242;2023-12-28T00:31:02;5.50;99.90
8261;DHT22;64115;50.170;8.242;2023-12-28T00:33:28;5.50;99.90
8261;DHT22;64115;50.170;8.242;2023-12-28T00:35:55;5.50;99.90
8261;DHT22;64115;50.170;8.242;2023-12-28T00:38:22;5.60;99.90
8261;DHT22;64115;50.170;8.242;2023-12-28T00:40:50;5.60;99.90
8261;DHT22;64115;50.170;8.242;2023-12-28T00:43:17;5.60;99.90
8261;DHT22;64115;50.170;8.242;2023-12-28T00:45:43;5.60;99.90
8261;DHT22;64115;50.170;8.242;2023-12-28T00:48:10;5.60;99.90
8261;DHT22;64115;50.170;8.242;2023-12-28T00:50:37;5.60;99.90
8261;DHT22;64115;50.170;8.242;2023-12-28T00:53:04;5.60;99.90
8261;DHT22;64115;50.170;8.242;2023-12-28T00:55:30;5.70;99.90
8261;DHT22;64115;50.170;8.242;2023-12-28T00:57:59;5.70;99.90
8261;DHT22;64115;50.170;8.242;2023-12-28T01:00:25;5.70;99.90
8261;DHT22;64115;50.170;8.242;2023-12-28T01:02:52;5.70;99.90
8261;DHT22;64115;50.170;8.242;2023-12-28T01:05:19;5.70;99.90
8261;DHT22;64115;50.170;8.242;2023-12-28T01:07:47;5.60;99.90
8261;DHT22;64115;50.170;8.242;2023-12-28T01:10:13;5.50;99.90
8261;DHT22;64115;50.170;8.242;2023-12-28T01:12:40;5.50;99.90
8261;DHT22;64115;50.170;8.242;2023-12-28T01:15:09;5.50;99.90
8261;DHT22;64115;50.170;8.242;2023-12-28T01:17:37;5.40;99.90
8261;DHT22;64115;50.170;8.242;2023-12-28T01:20:04;5.40;99.90
8261;DHT22;64115;50.170;8.242;2023-12-28T01:22:31;5.40;99.90
8261;DHT22;64115;50.170;8.242;2023-12-28T01:24:58;5.40;99.90
8261;DHT22;64115;50.170;8.242;2023-12-28T01:27:25;5.40;99.90
8261;DHT22;64115;50.170;8.242;2023-12-28T01:29:52;5.50;99.90
8261;DHT22;64115;50.170;8.242;2023-12-28T01:32:20;5.50;99.90
8261;DHT22;64115;50.170;8.242;2023-12-28T01:34:47;5.60;99.90
8261;DHT22;64115;50.170;8.242;2023-12-28T01:37:13;5.60;99.90
8261;DHT22;64115;50.170;8.242;2023-12-28T01:39:40;5.60;99.90
8261;DHT22;64115;50.170;8.242;2023-12-28T01:42:07;5.60;99.90
8261;DHT22;64115;50.170;8.242;2023-12-28T01:44:34;5.60;99.90
8261;DHT22;64115;50.170;8.242;2023-12-28T01:47:00;5.60;99.90
8261;DHT22;64115;50.170;8.242;2023-12-28T01:49:29;5.70;99.90
8261;DHT22;64115;50.170;8.242;2023-12-28T01:51:55;5.70;99.90
8261;DHT22;64115;50.170;8.242;2023-12-28T01:54:25;5.70;99.90
8261;DHT22;64115;50.170;8.242;2023-12-28T01:56:52;5.70;99.90
8261;DHT22;64115;50.170;8.242;2023-12-28T01:59:19;5.80;99.90
8261;DHT22;64115;50.170;8.242;2023-12-28T02:01:46;5.70;99.90
8261;DHT22;64115;50.170;8.242;2023-12-28T02:04:13;5.70;99.90
8261;DHT22;64115;50.170;8.242;2023-12-28T02:06:41;5.70;99.90
8261;DHT22;64115;50.170;8.242;2023-12-28T02:09:08;5.70;99.90
8261;DHT22;64115;50.170;8.242;2023-12-28T02:11:34;5.70;99.90
8261;DHT22;64115;50.170;8.242;2023-12-28T02:14:01;5.80;99.90
8261;DHT22;64115;50.170;8.242;2023-12-28T02:16:32;5.80;99.90
8261;DHT22;64115;50.170;8.242;2023-12-28T02:19:03;5.80;99.90
8261;DHT22;64115;50.170;8.242;2023-12-28T02:21:35;5.80;99.90
8261;DHT22;64115;50.170;8.242;2023-12-28T02:24:04;5.80;99.90
8261;DHT22;64115;50.170;8.242;2023-12-28T02:26:32;5.80;99.90
8261;DHT22;64115;50.170;8.242;2023-12-28T02:28:59;5.80;99.90
8261;DHT22;64115;50.170;8.242;2023-12-28T02:31:34;5.90;99.90
8261;DHT22;64115;50.170;8.242;2023-12-28T02:34:06;5.90;99.90
8261;DHT22;64115;50.170;8.242;2023-12-28T02:36:36;5.90;99.90
8261;DHT22;64115;50.170;8.242;2023-12-28T02:39:05;6.00;99.90
8261;DHT22;64115;50.170;8.242;2023-12-28T02:41:34;6.00;99.90
8261;DHT22;64115;50.170;8.242;2023-12-28T02:44:02;6.00;99.90
8261;DHT22;64115;50.170;8.242;2023-12-28T02:46:29;6.00;99.90
8261;DHT22;64115;50.170;8.242;2023-12-28T02:48:55;6.10;99.90
8261;DHT22;64115;50.170;8.242;2023-12-28T02:51:25;6.10;99.90
8261;DHT22;64115;50.170;8.242;2023-12-28T02:53:51;6.10;99.90
8261;DHT22;64115;50.170;8.242;2023-12-28T02:56:18;6.10;99.90
8261;DHT22;64115;50.170;8.242;2023-12-28T02:58:46;6.00;99.90
8261;DHT22;64115;50.170;8.242;2023-12-28T03:01:13;6.10;99.90
8261;DHT22;64115;50.170;8.242;2023-12-28T03:03:40;6.00;99.90
8261;DHT22;64115;50.170;8.242;2023-12-28T03:06:07;6.00;99.90
8261;DHT22;64115;50.170;8.242;2023-12-28T03:08:33;6.00;99.90
8261;DHT22;64115;50.170;8.242;2023-12-28T03:11:00;5.90;99.90
8261;DHT22;64115;50.170;8.242;2023-12-28T03:13:27;5.90;99.90
8261;DHT22;64115;50.170;8.242;2023-12-28T03:15:55;5.80;99.90
8261;DHT22;64115;50.170;8.242;2023-12-28T03:18:22;5.80;99.90
8261;DHT22;64115;50.170;8.242;2023-12-28T03:20:49;5.80;99.90
8261;DHT22;64115;50.170;8.242;2023-12-28T03:23:15;5.80;99.90
8261;DHT22;64115;50.170;8.242;2023-12-28T03:25:42;5.80;99.90
8261;DHT22;64115;50.170;8.242;2023-12-28T03:28:09;5.80;99.90
8261;DHT22;64115;50.170;8.242;2023-12-28T03:30:36;5.80;99.90
8261;DHT22;64115;50.170;8.242;2023-12-28T03:33:04;5.80;99.90
8261;DHT22;64115;50.170;8.242;2023-12-28T03:35:31;5.80;99.90
8261;DHT22;64115;50.170;8.242;2023-12-28T03:37:58;5.90;99.90
8261;DHT22;64115;50.170;8.242;2023-12-28T03:40:24;5.90;99.90
8261;DHT22;64115;50.170;8.242;2023-12-28T03:42:51;5.90;99.90
8261;DHT22;64115;50.170;8.242;2023-12-28T03:45:18;6.00;99.90
8261;DHT22;64115;50.170;8.242;2023-12-28T03:47:45;6.00;99.90
8261;DHT22;64115;50.170;8.242;2023-12-28T03:50:13;6.00;99.90
8261;DHT22;64115;50.170;8.242;2023-12-28T03:52:41;6.10;99.90
8261;DHT22;64115;50.170;8.242;2023-12-28T03:55:07;6.10;99.90
8261;DHT22;64115;50.170;8.242;2023-12-28T03:57:34;6.00;99.90
8261;DHT22;64115;50.170;8.242;2023-12-28T04:00:01;6.00;99.90
8261;DHT22;64115;50.170;8.242;2023-12-28T04:02:28;6.00;99.90
8261;DHT22;64115;50.170;8.242;2023-12-28T04:04:56;6.00;99.90
8261;DHT22;64115;50.170;8.242;2023-12-28T04:07:25;6.00;99.90
8261;DHT22;64115;50.170;8.242;2023-12-28T04:09:52;6.00;99.90
8261;DHT22;64115;50.170;8.242;2023-12-28T04:12:20;6.00;99.90
8261;DHT22;64115;50.170;8.242;2023-12-28T04:14:47;6.00;99.90
8261;DHT22;64115;50.170;8.242;2023-12-28T04:17:13;6.00;99.90
8261;DHT22;64115;50.170;8.242;2023-12-28T04:19:40;6.00;99.90
8261;DHT22;64115;50.170;8.242;2023-12-28T04:22:07;5.90;99.90
8261;DHT22;64115;50.170;8.242;2023-12-28T04:24:36;5.90;99.90
8261;DHT22;64115;50.170;8.242;2023-12-28T04:27:03;6.00;99.90
8261;DHT22;64115;50.170;8.242;2023-12-28T04:29:30;6.00;99.90
8261;DHT22;64115;50.170;8.242;2023-12-28T04:31:57;6.00;99.90
8261;DHT22;64115;50.170;8.242;2023-12-28T04:34:23;5.90;99.90
8261;DHT22;64115;50.170;8.242;2023-12-28T04:36:50;5.90;99.90
8261;DHT22;64115;50.170;8.242;2023-12-28T04:39:18;5.90;99.90
8261;DHT22;64115;50.170;8.242;2023-12-28T04:41:46;6.00;99.90
8261;DHT22;64115;50.170;8.242;2023-12-28T04:44:12;6.00;99.90
8261;DHT22;64115;50.170;8.242;2023-12-28T04:46:39;6.00;99.90
8261;DHT22;64115;50.170;8.242;2023-12-28T04:49:08;6.00;99.90
8261;DHT22;64115;50.170;8.242;2023-12-28T04:51:34;6.00;99.90
8261;DHT22;64115;50.170;8.242;2023-12-28T04:54:01;6.00;99.90
8261;DHT22;64115;50.170;8.242;2023-12-28T04:56:28;6.00;99.90
8261;DHT22;64115;50.170;8.242;2023-12-28T04:58:56;6.00;99.90
8261;DHT22;64115;50.170;8.242;2023-12-28T05:01:23;6.00;99.90
8261;DHT22;64115;50.170;8.242;2023-12-28T05:03:50;6.00;99.90
8261;DHT22;64115;50.170;8.242;2023-12-28T05:06:17;6.00;99.90
8261;DHT22;64115;50.170;8.242;2023-12-28T05:08:43;6.00;99.90
8261;DHT22;64115;50.170;8.242;2023-12-28T05:11:10;6.00;99.90
8261;DHT22;64115;50.170;8.242;2023-12-28T05:13:37;6.00;99.90
8261;DHT22;64115;50.170;8.242;2023-12-28T05:16:06;6.00;99.90
8261;DHT22;64115;50.170;8.242;2023-12-28T05:18:32;6.00;99.90
8261;DHT22;64115;50.170;8.242;2023-12-28T05:20:59;5.90;99.90
8261;DHT22;64115;50.170;8.242;2023-12-28T05:23:26;5.90;99.90
8261;DHT22;64115;50.170;8.242;2023-12-28T05:25:53;5.90;99.90
8261;DHT22;64115;50.170;8.242;2023-12-28T05:28:20;5.80;99.90
8261;DHT22;64115;50.170;8.242;2023-12-28T05:30:46;5.70;99.90
8261;DHT22;64115;50.170;8.242;2023-12-28T05:33:14;5.60;99.90
8261;DHT22;64115;50.170;8.242;2023-12-28T05:35:41;5.60;99.90
8261;DHT22;64115;50.170;8.242;2023-12-28T05:38:08;5.60;99.90
8261;DHT22;64115;50.170;8.242;2023-12-28T05:40:35;5.50;99.90
8261;DHT22;64115;50.170;8.242;2023-12-28T05:43:02;5.50;99.90
8261;DHT22;64115;50.170;8.242;2023-12-28T05:45:29;5.50;99.90
8261;DHT22;64115;50.170;8.242;2023-12-28T05:47:55;5.50;99.90
8261;DHT22;64115;50.170;8.242;2023-12-28T05:50:23;5.50;99.90
8261;DHT22;64115;50.170;8.242;2023-12-28T05:52:50;5.40;99.90
8261;DHT22;64115;50.170;8.242;2023-12-28T05:55:17;5.40;99.90
8261;DHT22;64115;50.170;8.242;2023-12-28T05:57:44;5.40;99.90
8261;DHT22;64115;50.170;8.242;2023-12-28T06:00:11;5.40;99.90
8261;DHT22;64115;50.170;8.242;2023-12-28T06:02:39;5.40;99.90
8261;DHT22;64115;50.170;8.242;2023-12-28T06:05:06;5.40;99.90
8261;DHT22;64115;50.170;8.242;2023-12-28T06:07:34;5.40;99.90
8261;DHT22;64115;50.170;8.242;2023-12-28T06:10:01;5.40;99.90
8261;DHT22;64115;50.170;8.242;2023-12-28T06:12:28;5.40;99.90
8261;DHT22;64115;50.170;8.242;2023-12-28T06:14:54;5.40;99.90
8261;DHT22;64115;50.170;8.242;2023-12-28T06:17:21;5.40;99.90
8261;DHT22;64115;50.170;8.242;2023-12-28T06:19:48;5.40;99.90
8261;DHT22;64115;50.170;8.242;2023-12-28T06:22:15;5.40;99.90
8261;DHT22;64115;50.170;8.242;2023-12-28T06:24:43;5.40;99.90
8261;DHT22;64115;50.170;8.242;2023-12-28T06:27:11;5.40;99.90
8261;DHT22;64115;50.170;8.242;2023-12-28T06:29:38;5.50;99.90
8261;DHT22;64115;50.170;8.242;2023-12-28T06:32:05;5.50;99.90
8261;DHT22;64115;50.170;8.242;2023-12-28T06:34:32;5.50;99.90
8261;DHT22;64115;50.170;8.242;2023-12-28T06:36:59;5.50;99.90
8261;DHT22;64115;50.170;8.242;2023-12-28T06:39:27;5.50;99.90
8261;DHT22;64115;50.170;8.242;2023-12-28T06:41:55;5.50;99.90
8261;DHT22;64115;50.170;8.242;2023-12-28T06:44:21;5.50;99.90
8261;DHT22;64115;50.170;8.242;2023-12-28T06:46:48;5.50;99.90
8261;DHT22;64115;50.170;8.242;2023-12-28T06:49:15;5.50;99.90
8261;DHT22;64115;50.170;8.242;2023-12-28T06:51:42;5.50;99.90
8261;DHT22;64115;50.170;8.242;2023-12-28T06:54:11;5.50;99.90
8261;DHT22;64115;50.170;8.242;2023-12-28T06:56:38;5.50;99.90
8261;DHT22;64115;50.170;8.242;2023-12-28T06:59:07;5.50;99.90
8261;DHT22;64115;50.170;8.242;2023-12-28T07:01:37;5.50;99.90
8261;DHT22;64115;50.170;8.242;2023-12-28T07:04:04;5.50;99.90
8261;DHT22;64115;50.170;8.242;2023-12-28T07:06:31;5.50;99.90
8261;DHT22;64115;50.170;8.242;2023-12-28T07:08:57;5.50;99.90
8261;DHT22;64115;50.170;8.242;2023-12-28T07:11:24;5.50;99.90
8261;DHT22;64115;50.170;8.242;2023-12-28T07:13:52;5.50;99.90
8261;DHT22;64115;50.170;8.242;2023-12-28T07:16:20;5.50;99.90
8261;DHT22;64115;50.170;8.242;2023-12-28T07:18:47;5.50;99.90
8261;DHT22;64115;50.170;8.242;2023-12-28T07:21:12;5.50;99.90
8261;DHT22;64115;50.170;8.242;2023-12-28T07:23:39;5.60;99.90
8261;DHT22;64115;50.170;8.242;2023-12-28T07:26:06;5.50;99.90
8261;DHT22;64115;50.170;8.242;2023-12-28T07:28:33;5.50;99.90
8261;DHT22;64115;50.170;8.242;2023-12-28T07:30:59;5.60;99.90
8261;DHT22;64115;50.170;8.242;2023-12-28T07:33:27;5.60;99.90
8261;DHT22;64115;50.170;8.242;2023-12-28T07:35:54;5.50;99.90
8261;DHT22;64115;50.170;8.242;2023-12-28T07:38:21;5.50;99.90
8261;DHT22;64115;50.170;8.242;2023-12-28T07:40:48;5.60;99.90
8261;DHT22;64115;50.170;8.242;2023-12-28T07:43:14;5.50;99.90
8261;DHT22;64115;50.170;8.242;2023-12-28T07:45:41;5.60;99.90
8261;DHT22;64115;50.170;8.242;2023-12-28T07:48:08;5.60;99.90
8261;DHT22;64115;50.170;8.242;2023-12-28T07:50:36;5.60;99.90
8261;DHT22;64115;50.170;8.242;2023-12-28T07:53:03;5.60;99.90
8261;DHT22;64115;50.170;8.242;2023-12-28T07:55:30;5.60;99.90
8261;DHT22;64115;50.170;8.242;2023-12-28T07:57:57;5.60;99.90
8261;DHT22;64115;50.170;8.242;2023-12-28T08:00:24;5.60;99.90
8261;DHT22;64115;50.170;8.242;2023-12-28T08:02:50;5.60;99.90
8261;DHT22;64115;50.170;8.242;2023-12-28T08:05:17;5.60;99.90
8261;DHT22;64115;50.170;8.242;2023-12-28T08:07:45;5.60;99.90
8261;DHT22;64115;50.170;8.242;2023-12-28T08:10:12;5.60;99.90
8261;DHT22;64115;50.170;8.242;2023-12-28T08:12:39;5.60;99.90
8261;DHT22;64115;50.170;8.242;2023-12-28T08:15:07;5.60;99.90
8261;DHT22;64115;50.170;8.242;2023-12-28T08:17:34;5.60;99.90
8261;DHT22;64115;50.170;8.242;2023-12-28T08:20:01;5.70;99.90
8261;DHT22;64115;50.170;8.242;2023-12-28T08:22:28;5.70;99.90
8261;DHT22;64115;50.170;8.242;2023-12-28T08:24:56;5.70;99.90
8261;DHT22;64115;50.170;8.242;2023-12-28T08:27:24;5.70;99.90
8261;DHT22;64115;50.170;8.242;2023-12-28T08:29:51;5.80;99.90
8261;DHT22;64115;50.170;8.242;2023-12-28T08:32:19;5.80;99.90
8261;DHT22;64115;50.170;8.242;2023-12-28T08:34:45;5.90;99.90
8261;DHT22;64115;50.170;8.242;2023-12-28T08:37:13;5.80;99.90
8261;DHT22;64115;50.170;8.242;2023-12-28T08:39:40;5.90;99.90
8261;DHT22;64115;50.170;8.242;2023-12-28T08:42:08;5.90;99.90
8261;DHT22;64115;50.170;8.242;2023-12-28T08:44:35;5.90;99.90
8261;DHT22;64115;50.170;8.242;2023-12-28T08:47:02;5.90;99.90
8261;DHT22;64115;50.170;8.242;2023-12-28T08:49:28;6.00;99.90
8261;DHT22;64115;50.170;8.242;2023-12-28T08:51:55;5.90;99.90
8261;DHT22;64115;50.170;8.242;2023-12-28T08:54:22;5.90;99.90
8261;DHT22;64115;50.170;8.242;2023-12-28T08:56:49;6.00;99.90
8261;DHT22;64115;50.170;8.242;2023-12-28T08:59:17;6.00;99.90
8261;DHT22;64115;50.170;8.242;2023-12-28T09:01:44;6.00;99.90
8261;DHT22;64115;50.170;8.242;2023-12-28T09:04:11;6.10;99.90
8261;DHT22;64115;50.170;8.242;2023-12-28T09:06:39;6.10;99.90
8261;DHT22;64115;50.170;8.242;2023-12-28T09:09:06;6.10;99.90
8261;DHT22;64115;50.170;8.242;2023-12-28T09:11:33;6.10;99.90
8261;DHT22;64115;50.170;8.242;2023-12-28T09:13:59;6.10;99.90
8261;DHT22;64115;50.170;8.242;2023-12-28T09:16:27;6.10;99.90
8261;DHT22;64115;50.170;8.242;2023-12-28T09:18:55;6.10;99.90
8261;DHT22;64115;50.170;8.242;2023-12-28T09:21:22;6.10;99.90
8261;DHT22;64115;50.170;8.242;2023-12-28T09:23:49;6.10;99.90
8261;DHT22;64115;50.170;8.242;2023-12-28T09:26:16;6.10;99.90
8261;DHT22;64115;50.170;8.242;2023-12-28T09:28:43;6.10;99.90
8261;DHT22;64115;50.170;8.242;2023-12-28T09:31:10;6.10;99.90
8261;DHT22;64115;50.170;8.242;2023-12-28T09:33:38;6.10;99.90
8261;DHT22;64115;50.170;8.242;2023-12-28T09:36:06;6.10;99.90
8261;DHT22;64115;50.170;8.242;2023-12-28T09:38:33;6.20;99.90
8261;DHT22;64115;50.170;8.242;2023-12-28T09:41:11;6.20;99.90
8261;DHT22;64115;50.170;8.242;2023-12-28T09:43:44;6.20;99.90
8261;DHT22;64115;50.170;8.242;2023-12-28T09:46:12;6.30;99.90
8261;DHT22;64115;50.170;8.242;2023-12-28T09:48:40;6.30;99.90
8261;DHT22;64115;50.170;8.242;2023-12-28T09:51:07;6.30;99.90
8261;DHT22;64115;50.170;8.242;2023-12-28T09:53:37;6.30;99.90
8261;DHT22;64115;50.170;8.242;2023-12-28T09:56:04;6.30;99.90
8261;DHT22;64115;50.170;8.242;2023-12-28T09:58:33;6.40;99.90
8261;DHT22;64115;50.170;8.242;2023-12-28T10:01:02;6.40;99.90
8261;DHT22;64115;50.170;8.242;2023-12-28T10:03:29;6.40;99.90
8261;DHT22;64115;50.170;8.242;2023-12-28T10:05:57;6.40;99.90
8261;DHT22;64115;50.170;8.242;2023-12-28T10:08:24;6.50;99.90
8261;DHT22;64115;50.170;8.242;2023-12-28T10:10:51;6.60;99.90
8261;DHT22;64115;50.170;8.242;2023-12-28T10:13:19;6.60;99.90
8261;DHT22;64115;50.170;8.242;2023-12-28T10:15:47;6.60;99.90
8261;DHT22;64115;50.170;8.242;2023-12-28T10:18:17;6.60;99.90
8261;DHT22;64115;50.170;8.242;2023-12-28T10:20:49;6.70;99.90
8261;DHT22;64115;50.170;8.242;2023-12-28T10:23:17;6.70;99.90
8261;DHT22;64115;50.170;8.242;2023-12-28T10:25:44;6.70;99.90
8261;DHT22;64115;50.170;8.242;2023-12-28T10:28:11;6.70;99.90
8261;DHT22;64115;50.170;8.242;2023-12-28T10:30:38;6.60;99.90
8261;DHT22;64115;50.170;8.242;2023-12-28T10:33:05;6.70;99.90
8261;DHT22;64115;50.170;8.242;2023-12-28T10:35:32;6.70;99.90
8261;DHT22;64115;50.170;8.242;2023-12-28T10:38:00;6.80;99.90
8261;DHT22;64115;50.170;8.242;2023-12-28T10:40:29;6.90;99.90
8261;DHT22;64115;50.170;8.242;2023-12-28T10:42:58;7.00;99.90
8261;DHT22;64115;50.170;8.242;2023-12-28T10:45:28;7.00;99.90
8261;DHT22;64115;50.170;8.242;2023-12-28T10:48:04;7.00;99.90
8261;DHT22;64115;50.170;8.242;2023-12-28T10:50:37;7.10;99.90
8261;DHT22;64115;50.170;8.242;2023-12-28T10:53:09;7.10;99.90
8261;DHT22;64115;50.170;8.242;2023-12-28T10:55:45;7.10;99.90
8261;DHT22;64115;50.170;8.242;2023-12-28T10:58:17;7.10;99.90
8261;DHT22;64115;50.170;8.242;2023-12-28T11:00:52;7.20;99.90
8261;DHT22;64115;50.170;8.242;2023-12-28T11:03:25;7.20;99.90
8261;DHT22;64115;50.170;8.242;2023-12-28T11:05:55;7.30;99.90
8261;DHT22;64115;50.170;8.242;2023-12-28T11:08:23;7.20;99.90
8261;DHT22;64115;50.170;8.242;2023-12-28T11:10:51;7.20;99.90
8261;DHT22;64115;50.170;8.242;2023-12-28T11:13:20;7.20;99.90
8261;DHT22;64115;50.170;8.242;2023-12-28T11:15:47;7.10;99.90
8261;DHT22;64115;50.170;8.242;2023-12-28T11:18:16;7.10;99.90
8261;DHT22;64115;50.170;8.242;2023-12-28T11:20:44;7.20;99.90
8261;DHT22;64115;50.170;8.242;2023-12-28T11:23:12;7.20;99.90
8261;DHT22;64115;50.170;8.242;2023-12-28T11:25:39;7.20;99.90
8261;DHT22;64115;50.170;8.242;2023-12-28T11:28:11;7.20;99.90
8261;DHT22;64115;50.170;8.242;2023-12-28T11:30:38;7.20;99.90
8261;DHT22;64115;50.170;8.242;2023-12-28T11:33:05;7.20;99.90
8261;DHT22;64115;50.170;8.242;2023-12-28T11:35:34;7.30;99.90
8261;DHT22;64115;50.170;8.242;2023-12-28T11:38:06;7.40;99.90
8261;DHT22;64115;50.170;8.242;2023-12-28T11:40:40;7.40;99.90
8261;DHT22;64115;50.170;8.242;2023-12-28T11:43:17;7.30;99.90
8261;DHT22;64115;50.170;8.242;2023-12-28T11:45:48;7.30;99.90
8261;DHT22;64115;50.170;8.242;2023-12-28T11:48:22;7.30;99.90
8261;DHT22;64115;50.170;8.242;2023-12-28T11:50:50;7.40;99.90
8261;DHT22;64115;50.170;8.242;2023-12-28T11:53:18;7.40;99.90
8261;DHT22;64115;50.170;8.242;2023-12-28T11:55:46;7.40;99.90
8261;DHT22;64115;50.170;8.242;2023-12-28T11:58:13;7.50;99.90
8261;DHT22;64115;50.170;8.242;2023-12-28T12:00:41;7.50;99.90
8261;DHT22;64115;50.170;8.242;2023-12-28T12:03:10;7.40;99.90
8261;DHT22;64115;50.170;8.242;2023-12-28T12:05:36;7.40;99.90
8261;DHT22;64115;50.170;8.242;2023-12-28T12:08:04;7.40;99.90
8261;DHT22;64115;50.170;8.242;2023-12-28T12:10:31;7.40;99.90
8261;DHT22;64115;50.170;8.242;2023-12-28T12:12:58;7.40;99.90
8261;DHT22;64115;50.170;8.242;2023-12-28T12:15:26;7.50;99.90
8261;DHT22;64115;50.170;8.242;2023-12-28T12:17:55;7.60;99.90
8261;DHT22;64115;50.170;8.242;2023-12-28T12:20:22;7.70;99.90
8261;DHT22;64115;50.170;8.242;2023-12-28T12:22:49;7.80;99.90
8261;DHT22;64115;50.170;8.242;2023-12-28T12:25:17;7.90;99.90
8261;DHT22;64115;50.170;8.242;2023-12-28T12:27:45;8.00;99.90
8261;DHT22;64115;50.170;8.242;2023-12-28T12:30:12;7.90;99.90
8261;DHT22;64115;50.170;8.242;2023-12-28T12:32:39;7.90;99.90
8261;DHT22;64115;50.170;8.242;2023-12-28T12:35:09;7.90;99.90
8261;DHT22;64115;50.170;8.242;2023-12-28T12:37:37;7.90;99.90
8261;DHT22;64115;50.170;8.242;2023-12-28T12:40:05;7.80;99.90
8261;DHT22;64115;50.170;8.242;2023-12-28T12:42:32;7.80;99.90
8261;DHT22;64115;50.170;8.242;2023-12-28T12:44:59;7.90;99.90
8261;DHT22;64115;50.170;8.242;2023-12-28T12:47:32;7.90;99.90
8261;DHT22;64115;50.170;8.242;2023-12-28T12:50:00;7.90;99.90
8261;DHT22;64115;50.170;8.242;2023-12-28T12:52:29;8.00;99.90
8261;DHT22;64115;50.170;8.242;2023-12-28T12:54:56;8.00;99.90
8261;DHT22;64115;50.170;8.242;2023-12-28T12:57:24;8.10;99.90
8261;DHT22;64115;50.170;8.242;2023-12-28T12:59:52;8.20;99.90
8261;DHT22;64115;50.170;8.242;2023-12-28T13:02:19;8.20;99.90
8261;DHT22;64115;50.170;8.242;2023-12-28T13:04:51;8.30;99.90
8261;DHT22;64115;50.170;8.242;2023-12-28T13:07:18;8.30;99.90
8261;DHT22;64115;50.170;8.242;2023-12-28T13:09:46;8.30;99.90
8261;DHT22;64115;50.170;8.242;2023-12-28T13:12:13;8.40;99.90
8261;DHT22;64115;50.170;8.242;2023-12-28T13:14:40;8.40;99.90
8261;DHT22;64115;50.170;8.242;2023-12-28T13:17:07;8.30;99.90
8261;DHT22;64115;50.170;8.242;2023-12-28T13:19:33;8.30;99.90
8261;DHT22;64115;50.170;8.242;2023-12-28T13:22:00;8.20;99.90
8261;DHT22;64115;50.170;8.242;2023-12-28T13:24:27;8.20;99.90
8261;DHT22;64115;50.170;8.242;2023-12-28T13:26:55;8.10;99.90
8261;DHT22;64115;50.170;8.242;2023-12-28T13:29:22;8.00;99.90
8261;DHT22;64115;50.170;8.242;2023-12-28T13:31:49;8.00;99.90
8261;DHT22;64115;50.170;8.242;2023-12-28T13:34:17;7.90;99.90
8261;DHT22;64115;50.170;8.242;2023-12-28T13:36:44;8.00;99.90
8261;DHT22;64115;50.170;8.242;2023-12-28T13:39:11;8.10;99.90
8261;DHT22;64115;50.170;8.242;2023-12-28T13:41:40;8.20;99.90
8261;DHT22;64115;50.170;8.242;2023-12-28T13:44:08;8.30;99.90
8261;DHT22;64115;50.170;8.242;2023-12-28T13:46:37;8.30;99.90
8261;DHT22;64115;50.170;8.242;2023-12-28T13:49:04;8.30;99.90
8261;DHT22;64115;50.170;8.242;2023-12-28T13:51:32;8.20;99.90
8261;DHT22;64115;50.170;8.242;2023-12-28T13:53:59;8.20;99.90
8261;DHT22;64115;50.170;8.242;2023-12-28T13:56:26;8.20;99.90
8261;DHT22;64115;50.170;8.242;2023-12-28T13:58:54;8.20;99.90
8261;DHT22;64115;50.170;8.242;2023-12-28T14:01:22;8.20;99.90
8261;DHT22;64115;50.170;8.242;2023-12-28T14:03:48;8.00;99.90
8261;DHT22;64115;50.170;8.242;2023-12-28T14:06:17;8.00;99.90
8261;DHT22;64115;50.170;8.242;2023-12-28T14:08:44;7.90;99.90
8261;DHT22;64115;50.170;8.242;2023-12-28T14:11:11;7.80;99.90
8261;DHT22;64115;50.170;8.242;2023-12-28T14:13:38;7.70;99.90
8261;DHT22;64115;50.170;8.242;2023-12-28T14:16:05;7.70;99.90
8261;DHT22;64115;50.170;8.242;2023-12-28T14:18:35;7.70;99.90
8261;DHT22;64115;50.170;8.242;2023-12-28T14:21:02;7.60;99.90
8261;DHT22;64115;50.170;8.242;2023-12-28T14:23:30;7.60;99.90
8261;DHT22;64115;50.170;8.242;2023-12-28T14:25:57;7.60;99.90
8261;DHT22;64115;50.170;8.242;2023-12-28T14:28:24;7.50;99.90
8261;DHT22;64115;50.170;8.242;2023-12-28T14:30:52;7.50;99.90
8261;DHT22;64115;50.170;8.242;2023-12-28T14:33:20;7.50;99.90
8261;DHT22;64115;50.170;8.242;2023-12-28T14:35:48;7.40;99.90
8261;DHT22;64115;50.170;8.242;2023-12-28T14:38:16;7.40;99.90
8261;DHT22;64115;50.170;8.242;2023-12-28T14:40:42;7.30;99.90
8261;DHT22;64115;50.170;8.242;2023-12-28T14:43:09;7.30;99.90
8261;DHT22;64115;50.170;8.242;2023-12-28T14:45:36;7.20;99.90
8261;DHT22;64115;50.170;8.242;2023-12-28T14:48:03;7.20;99.90
8261;DHT22;64115;50.170;8.242;2023-12-28T14:50:30;7.20;99.90
8261;DHT22;64115;50.170;8.242;2023-12-28T14:52:58;7.20;99.90
8261;DHT22;64115;50.170;8.242;2023-12-28T14:55:25;7.10;99.90
8261;DHT22;64115;50.170;8.242;2023-12-28T14:57:53;7.10;99.90
8261;DHT22;64115;50.170;8.242;2023-12-28T15:00:20;7.10;99.90
8261;DHT22;64115;50.170;8.242;2023-12-28T15:02:47;7.00;99.90
8261;DHT22;64115;50.170;8.242;2023-12-28T15:05:13;7.00;99.90
8261;DHT22;64115;50.170;8.242;2023-12-28T15:07:41;7.00;99.90
8261;DHT22;64115;50.170;8.242;2023-12-28T15:10:11;7.00;99.90
8261;DHT22;64115;50.170;8.242;2023-12-28T15:12:38;6.90;99.90
8261;DHT22;64115;50.170;8.242;2023-12-28T15:15:06;6.90;99.90
8261;DHT22;64115;50.170;8.242;2023-12-28T15:17:33;6.90;99.90
8261;DHT22;64115;50.170;8.242;2023-12-28T15:20:01;6.80;99.90
8261;DHT22;64115;50.170;8.242;2023-12-28T15:22:28;6.70;99.90
8261;DHT22;64115;50.170;8.242;2023-12-28T15:24:55;6.70;99.90
8261;DHT22;64115;50.170;8.242;2023-12-28T15:27:25;6.70;99.90
8261;DHT22;64115;50.170;8.242;2023-12-28T15:29:52;6.60;99.90
8261;DHT22;64115;50.170;8.242;2023-12-28T15:32:18;6.60;99.90
8261;DHT22;64115;50.170;8.242;2023-12-28T15:34:45;6.50;99.90
8261;DHT22;64115;50.170;8.242;2023-12-28T15:37:12;6.50;99.90
8261;DHT22;64115;50.170;8.242;2023-12-28T15:39:39;6.50;99.90
8261;DHT22;64115;50.170;8.242;2023-12-28T15:42:07;6.40;99.90
8261;DHT22;64115;50.170;8.242;2023-12-28T15:44:35;6.40;99.90
8261;DHT22;64115;50.170;8.242;2023-12-28T15:47:02;6.40;99.90
8261;DHT22;64115;50.170;8.242;2023-12-28T15:49:29;6.40;99.90
8261;DHT22;64115;50.170;8.242;2023-12-28T15:51:56;6.40;99.90
8261;DHT22;64115;50.170;8.242;2023-12-28T15:54:22;6.40;99.90
8261;DHT22;64115;50.170;8.242;2023-12-28T15:56:49;6.40;99.90
8261;DHT22;64115;50.170;8.242;2023-12-28T15:59:16;6.40;99.90
8261;DHT22;64115;50.170;8.242;2023-12-28T16:01:44;6.30;99.90
8261;DHT22;64115;50.170;8.242;2023-12-28T16:04:11;6.30;99.90